SLMZ weather

Mizque Airport
Mizque, Cochabamba Department, Bolivia

Public forecast

Using degrees Celsius for public forecast. Weather courtesy of forecast.io.

METAR (pilot weather report)

Closest report is Jorge Wilsterman International Airport, 54.9 nm (101.7 km) NW. Retrieved 2019/03/26 16:00 UTC (13 minutes ago):

SLCB 261600Z VRB02KT 9999 SCT033 SCT070 BKN200 19/13 Q1027

TAF (pilot weather forecast)

Forecast is more than 12 hours old.

Closest forecast is Jorge Wilsterman International Airport, 54.9 nm (101.7 km) NW. Retrieved 2019/03/25 00:25 UTC (2 days ago):

TAF SLCB 252200Z 2600/2624 14010KT 9999 SCT027 FEW036CB BKN070 TX27/2619Z TN14/2610Z BECMG 2604/2606 00000KT SCT027 BKN070 TEMPO 2606/2608 8000 RA BECMG 2616/2618 26010KT FEW033 FEW036CB TEMPO 2619/2622 8000 TSRA